Madison, MN

2:50 PM CST on February 10, 2016 (GMT -0600)
Madison-Lac Qui Parle County

Weather History for KDXX - November, 2012

Change the Weather History Date:

Friday, November 9, 2012

  Actual Average (KAQP) Record (KAQP)
Temperature  
Mean Temperature 42 °F -  
Max Temperature 48 °F 40 °F 68 °F (1999)
Min Temperature 35 °F 23 °F 17 °F (2007)
Degree Days  
Heating Degree Days 24    
Moisture  
Dew Point 36 °F    
Average Humidity 79    
Maximum Humidity 93    
Minimum Humidity 66    
Precipitation  
Precipitation 0.00 in - - ()
Sea Level Pressure  
Sea Level Pressure 29.94 in    
Wind  
Wind Speed 12 mph (ENE)    
Max Wind Speed 20 mph    
Max Gust Speed 26 mph    
Visibility 10 miles    
Events      
Averages and records for this station are not official NWS values.
T = Trace of Precipitation, MM = Missing Value Source: NWS Daily Summary

Daily Weather History Graph

Daily Weather History Graph

Search for Another Location

Airport or City:

Trip Planner

Search our weather history database for the weather conditions in past years. The results will help you decide how hot, cold, wet, or windy it might be!

Date:

Astronomy

Nov. 09, 2012 Rise Set
Actual Time 7:14 AM CST 5:01 PM CST
Civil Twilight 6:43 AM CST 5:33 PM CST
Nautical Twilight 6:08 AM CST 6:08 PM CST
Astronomical Twilight 5:33 AM CST 6:42 PM CST
Moon 2:02 AM CST (11/9) 2:26 PM CST (11/9)
Length of Visible Light 10h 49m
Length of Day
9h 46m
Waning Crescent, 23% of the Moon is Illuminated
Nov 9
Waning Crescent
Nov 13
New
Nov 20
First Quarter
Nov 28
Full
Dec 6
Last Quarter

Hourly Weather History & Observations

Time (CST) Temp. Windchill Dew Point Humidity Pressure Visibility Wind Dir Wind Speed Gust Speed Precip Events Conditions
12:14 AM 37.4 °F 32.1 °F 33.8 °F 87% 30.03 in 10.0 mi North 6.9 mph - N/A   Clear
12:33 AM 37.4 °F 32.1 °F 33.8 °F 87% 30.03 in 10.0 mi North 6.9 mph - N/A   Clear
12:53 AM 37.4 °F 31.4 °F 33.8 °F 87% 30.04 in 10.0 mi North 8.1 mph - N/A   Clear
1:14 AM 37.4 °F 31.4 °F 33.8 °F 87% 30.02 in 10.0 mi NNE 8.1 mph - N/A   Clear
1:33 AM 35.6 °F 29.2 °F 33.8 °F 93% 30.01 in 10.0 mi NNE 8.1 mph - N/A   Clear
1:54 AM 35.6 °F 28.6 °F 33.8 °F 93% 30.02 in 10.0 mi North 9.2 mph - N/A   Clear
2:14 AM 37.4 °F 30.3 °F 33.8 °F 87% 30.03 in 10.0 mi North 10.4 mph - N/A   Clear
2:33 AM 37.4 °F 29.8 °F 35.6 °F 93% 30.03 in 10.0 mi North 11.5 mph - N/A   Mostly Cloudy
2:54 AM 37.4 °F 30.8 °F 33.8 °F 87% 30.02 in 10.0 mi NNE 9.2 mph - N/A   Scattered Clouds
3:14 AM 39.2 °F 32.5 °F 35.6 °F 87% 30.02 in 10.0 mi NNE 10.4 mph - N/A   Mostly Cloudy
3:33 AM 39.2 °F 32.0 °F 33.8 °F 81% 30.02 in 10.0 mi NNE 11.5 mph - N/A   Overcast
3:54 AM 39.2 °F 32.0 °F 33.8 °F 81% 30.03 in 10.0 mi NNE 11.5 mph - N/A   Mostly Cloudy
4:14 AM 39.2 °F 31.6 °F 33.8 °F 81% 30.03 in 10.0 mi NNE 12.7 mph - N/A   Overcast
4:33 AM 39.2 °F 31.6 °F 33.8 °F 81% 30.03 in 10.0 mi NNE 12.7 mph - N/A   Mostly Cloudy
4:54 AM 39.2 °F 32.0 °F 33.8 °F 81% 30.03 in 10.0 mi NNE 11.5 mph - N/A   Mostly Cloudy
5:14 AM 39.2 °F 32.0 °F 33.8 °F 81% 30.03 in 10.0 mi NE 11.5 mph - N/A   Mostly Cloudy
5:54 AM 39.2 °F 31.6 °F 33.8 °F 81% 30.02 in 10.0 mi NE 12.7 mph - N/A   Overcast
6:14 AM 39.2 °F 32.0 °F 33.8 °F 81% 30.02 in 10.0 mi NE 11.5 mph - N/A   Overcast
6:33 AM 39.2 °F 32.5 °F 33.8 °F 81% 30.01 in 10.0 mi NE 10.4 mph - N/A   Overcast
6:54 AM 37.4 °F 29.3 °F 33.8 °F 87% 30.01 in 10.0 mi NE 12.7 mph - N/A   Mostly Cloudy
7:14 AM 37.4 °F 29.8 °F 33.8 °F 87% 30.01 in 10.0 mi NE 11.5 mph - N/A   Scattered Clouds
7:33 AM 37.4 °F 31.4 °F 33.8 °F 87% 30.02 in 10.0 mi NE 8.1 mph - N/A   Clear
7:54 AM 35.6 °F 30.7 °F 33.8 °F 93% 30.03 in 10.0 mi NE 5.8 mph - N/A   Clear
8:14 AM 37.4 °F 32.8 °F 33.8 °F 87% 30.03 in 10.0 mi NE 5.8 mph - N/A   Clear
8:54 AM 39.2 °F 32.5 °F 35.6 °F 87% 30.02 in 10.0 mi NE 10.4 mph - N/A   Clear
9:14 AM 39.2 °F 32.0 °F 35.6 °F 87% 30.01 in 10.0 mi ENE 11.5 mph - N/A   Clear
9:33 AM 41.0 °F 32.8 °F 35.6 °F 81% 30.01 in 10.0 mi ENE 16.1 mph - N/A   Clear
9:54 AM 41.0 °F 33.1 °F 35.6 °F 81% 30.00 in 10.0 mi ENE 15.0 mph - N/A   Clear
10:14 AM 41.0 °F 33.1 °F 35.6 °F 81% 29.99 in 10.0 mi East 15.0 mph - N/A   Clear
10:33 AM 42.8 °F 35.4 °F 35.6 °F 76% 30.00 in 10.0 mi East 15.0 mph - N/A   Clear
10:54 AM 42.8 °F 35.8 °F 37.4 °F 81% 29.99 in 10.0 mi East 13.8 mph - N/A   Clear
11:14 AM 44.6 °F 38.1 °F 37.4 °F 76% 29.98 in 10.0 mi East 13.8 mph - N/A   Scattered Clouds
11:33 AM 44.6 °F 37.8 °F 37.4 °F 76% 29.97 in 10.0 mi East 15.0 mph - N/A   Clear
11:54 AM 44.6 °F 38.1 °F 37.4 °F 76% 29.96 in 10.0 mi East 13.8 mph - N/A   Clear
12:14 PM 44.6 °F 37.8 °F 37.4 °F 76% 29.94 in 10.0 mi East 15.0 mph - N/A   Scattered Clouds
12:33 PM 46.4 °F 40.4 °F 37.4 °F 71% 29.93 in 10.0 mi East 13.8 mph - N/A   Scattered Clouds
12:54 PM 46.4 °F 39.8 °F 37.4 °F 71% 29.92 in 10.0 mi East 16.1 mph - N/A   Scattered Clouds
1:13 PM 46.4 °F 40.7 °F 37.4 °F 71% 29.91 in 10.0 mi East 12.7 mph - N/A   Clear
1:33 PM 48.2 °F - 37.4 °F 66% 29.90 in 10.0 mi East 17.3 mph - N/A   Clear
1:54 PM 48.2 °F - 37.4 °F 66% 29.89 in 10.0 mi East 16.1 mph - N/A   Clear
2:13 PM 48.2 °F - 37.4 °F 66% 29.90 in 10.0 mi East 13.8 mph 20.7 mph N/A   Scattered Clouds
2:33 PM 48.2 °F - 37.4 °F 66% 29.89 in 10.0 mi East 13.8 mph 18.4 mph N/A   Scattered Clouds
2:54 PM 48.2 °F - 37.4 °F 66% 29.89 in 10.0 mi East 12.7 mph - N/A   Scattered Clouds
3:13 PM 48.2 °F - 37.4 °F 66% 29.89 in 10.0 mi East 12.7 mph 20.7 mph N/A   Clear
3:33 PM 48.2 °F - 37.4 °F 66% 29.89 in 10.0 mi East 16.1 mph - N/A   Clear
3:54 PM 48.2 °F - 37.4 °F 66% 29.89 in 10.0 mi East 17.3 mph - N/A   Clear
4:13 PM 48.2 °F - 37.4 °F 66% 29.88 in 10.0 mi East 13.8 mph 20.7 mph N/A   Clear
4:33 PM 46.4 °F 40.4 °F 37.4 °F 71% 29.88 in 10.0 mi East 13.8 mph - N/A   Clear
4:54 PM 46.4 °F 40.4 °F 37.4 °F 71% 29.87 in 10.0 mi East 13.8 mph 20.7 mph N/A   Clear
5:13 PM 46.4 °F 40.4 °F 37.4 °F 71% 29.88 in 10.0 mi East 13.8 mph - N/A   Clear
5:33 PM 44.6 °F 38.1 °F 37.4 °F 76% 29.88 in 10.0 mi ENE 13.8 mph - N/A   Clear
5:54 PM 44.6 °F 36.9 °F 37.4 °F 76% 29.88 in 10.0 mi East 18.4 mph - N/A   Clear
6:13 PM 44.6 °F 37.2 °F 37.4 °F 76% 29.88 in 10.0 mi East 17.3 mph 20.7 mph N/A   Clear
6:33 PM 44.6 °F 38.4 °F 37.4 °F 76% 29.89 in 10.0 mi East 12.7 mph 17.3 mph N/A   Scattered Clouds
6:54 PM 44.6 °F 37.4 °F 37.4 °F 76% 29.88 in 10.0 mi East 16.1 mph - N/A   Overcast
7:14 PM 44.6 °F 37.2 °F 37.4 °F 76% 29.88 in 10.0 mi East 17.3 mph - N/A   Overcast
7:33 PM 42.8 °F 35.8 °F 37.4 °F 81% 29.88 in 10.0 mi East 13.8 mph - N/A   Overcast
7:54 PM 42.8 °F 36.6 °F 37.4 °F 81% 29.90 in 10.0 mi East 11.5 mph 17.3 mph N/A   Mostly Cloudy
8:14 PM 42.8 °F 35.8 °F 37.4 °F 81% 29.89 in 10.0 mi East 13.8 mph - N/A   Scattered Clouds
8:33 PM 42.8 °F 35.1 °F 37.4 °F 81% 29.88 in 10.0 mi East 16.1 mph - N/A   Mostly Cloudy
8:54 PM 42.8 °F 35.1 °F 37.4 °F 81% 29.88 in 10.0 mi East 16.1 mph - N/A   Mostly Cloudy
9:14 PM 42.8 °F 34.3 °F 35.6 °F 76% 29.87 in 10.0 mi East 19.6 mph 23.0 mph N/A   Scattered Clouds
9:33 PM 42.8 °F 34.3 °F 37.4 °F 81% 29.86 in 10.0 mi East 19.6 mph 23.0 mph N/A   Scattered Clouds
9:54 PM 42.8 °F 34.8 °F 37.4 °F 81% 29.86 in 10.0 mi East 17.3 mph 25.3 mph N/A   Scattered Clouds
10:14 PM 44.6 °F 37.8 °F 37.4 °F 76% 29.86 in 10.0 mi East 15.0 mph - N/A   Clear
10:33 PM 44.6 °F 36.9 °F 37.4 °F 76% 29.83 in 10.0 mi East 18.4 mph 21.9 mph N/A   Clear
10:54 PM 44.6 °F 36.6 °F 37.4 °F 76% 29.83 in 10.0 mi East 19.6 mph 26.5 mph N/A   Clear
11:14 PM 44.6 °F 36.6 °F 37.4 °F 76% 29.82 in 10.0 mi ESE 19.6 mph 26.5 mph N/A   Scattered Clouds
11:33 PM 44.6 °F 36.6 °F 37.4 °F 76% 29.81 in 10.0 mi ESE 19.6 mph 25.3 mph N/A   Scattered Clouds
11:54 PM 44.6 °F 37.4 °F 37.4 °F 76% 29.80 in 10.0 mi ESE 16.1 mph - N/A   Clear